Time;durP1;ratioP1;P1;durP2;ratioP2;P2;SDS_P1;SDS_P2;PMS_P1;PMS_P2;Temp;Humidity;BMP_temperature;BMP_pressure;BME280_temperature;BME280_humidity;BME280_pressure;Samples;Min_cycle;Max_cycle;Signal;HPM_P1;HPM_P2
2022/02/25 00:01:41;;;;;;;0.20;0.20;;;;;;;26.43;27.43;96840.16;5006674;28;20871;-30
2022/02/25 00:04:06;;;;;;;1.13;0.57;;;;;;;26.44;27.29;96847.09;5005439;28;20655;-33
2022/02/25 00:06:32;;;;;;;0.57;0.43;;;;;;;26.42;27.41;96851.56;5005557;28;20033;-29
2022/02/25 00:08:57;;;;;;;0.50;0.30;;;;;;;26.43;27.37;96846.22;5005742;28;20033;-28
2022/02/25 00:11:22;;;;;;;1.20;0.60;;;;;;;26.43;27.32;96840.97;5005552;28;20037;-31
2022/02/25 00:13:48;;;;;;;0.68;0.32;;;;;;;26.44;27.31;96847.09;5004291;28;21931;-29
2022/02/25 00:16:13;;;;;;;0.28;0.20;;;;;;;26.42;27.36;96851.56;5003918;28;20420;-30
2022/02/25 00:18:39;;;;;;;0.55;0.40;;;;;;;26.42;27.44;96859.44;5004920;28;20680;-30
2022/02/25 00:21:04;;;;;;;0.82;0.50;;;;;;;26.42;27.25;96859.44;5002284;28;21038;-28
2022/02/25 00:23:29;;;;;;;0.85;0.50;;;;;;;26.42;27.31;96864.69;5005571;28;20029;-26
2022/02/25 00:25:55;;;;;;;0.47;0.40;;;;;;;26.40;27.45;96870.06;5005932;28;20056;-32
2022/02/25 00:28:21;;;;;;;0.22;0.22;;;;;;;26.41;27.32;96886.66;5005910;28;20411;-30
2022/02/25 00:30:46;;;;;;;0.55;0.40;;;;;;;26.40;27.36;96895.47;5002169;28;20533;-29
2022/02/25 00:33:14;;;;;;;0.70;0.40;;;;;;;26.39;27.37;96894.63;5007285;28;20123;-26
2022/02/25 00:35:40;;;;;;;1.00;0.50;;;;;;;26.39;27.40;96897.25;5007256;28;20029;-28
2022/02/25 00:38:05;;;;;;;2.47;0.40;;;;;;;26.38;27.40;96900.81;5006413;28;20418;-29
2022/02/25 00:40:30;;;;;;;0.25;0.25;;;;;;;26.39;27.19;96914.81;5004480;28;20115;-29
2022/02/25 00:42:56;;;;;;;0.88;0.30;;;;;;;26.39;27.29;96905.13;5003773;28;20514;-28
2022/02/25 00:45:21;;;;;;;0.95;0.50;;;;;;;26.38;27.40;96903.44;5006363;28;20021;-29
2022/02/25 00:47:47;;;;;;;0.65;0.30;;;;;;;26.38;27.41;96913.13;5005538;28;20063;-29
2022/02/25 00:50:12;;;;;;;0.70;0.43;;;;;;;26.39;27.26;96914.81;5004247;28;20028;-30
2022/02/25 00:52:38;;;;;;;1.85;0.40;;;;;;;26.38;27.41;96918.38;5003567;28;20107;-30
2022/02/25 00:55:04;;;;;;;1.52;0.50;;;;;;;26.38;27.26;96918.38;5004679;28;20063;-28
2022/02/25 00:57:30;;;;;;;1.30;0.50;;;;;;;26.38;27.36;96918.38;5004319;28;20025;-28
2022/02/25 00:59:55;;;;;;;1.17;0.45;;;;;;;26.37;27.26;96927.16;5001891;28;20083;-29
2022/02/25 01:02:20;;;;;;;0.77;0.43;;;;;;;26.37;27.29;96927.16;5003001;28;20022;-28
2022/02/25 01:04:46;;;;;;;0.93;0.40;;;;;;;26.37;27.29;96932.41;5001794;28;20021;-29
2022/02/25 01:07:12;;;;;;;0.32;0.30;;;;;;;26.35;27.31;96933.34;5005768;28;20032;-30
2022/02/25 01:09:38;;;;;;;0.95;0.52;;;;;;;26.35;27.14;96941.25;5006596;28;20038;-29
2022/02/25 01:12:04;;;;;;;0.75;0.50;;;;;;;26.34;27.21;96939.56;5007134;28;20657;-28
2022/02/25 01:14:29;;;;;;;0.63;0.40;;;;;;;26.35;27.29;96941.25;5005317;28;20053;-28
2022/02/25 01:16:55;;;;;;;0.82;0.40;;;;;;;26.34;27.22;96952.69;5004110;28;20596;-29
2022/02/25 01:19:20;;;;;;;1.23;0.43;;;;;;;26.34;27.29;96955.31;5005124;28;20029;-29
2022/02/25 01:21:46;;;;;;;1.38;0.50;;;;;;;26.34;27.20;96955.31;5002256;28;20036;-27
2022/02/25 01:24:12;;;;;;;0.40;0.40;;;;;;;26.34;27.18;96957.06;5007881;28;20036;-28
2022/02/25 01:26:37;;;;;;;0.77;0.40;;;;;;;26.33;27.17;96958.00;5011199;28;20030;-29
2022/02/25 01:29:02;;;;;;;0.20;0.20;;;;;;;26.33;27.07;96969.38;5014150;28;20034;-29
2022/02/25 01:31:28;;;;;;;1.00;0.43;;;;;;;26.33;27.20;96979.91;5010234;28;20772;-29
2022/02/25 01:33:53;;;;;;;0.28;0.25;;;;;;;26.31;27.17;96971.22;5012795;28;20404;-30
2022/02/25 01:36:19;;;;;;;0.50;0.40;;;;;;;26.32;27.05;96980.81;5011255;28;20025;-31
2022/02/25 01:38:44;;;;;;;0.90;0.40;;;;;;;26.31;27.29;96987.00;5012080;28;20029;-28
2022/02/25 01:41:09;;;;;;;0.75;0.40;;;;;;;26.30;27.11;96985.31;5013428;28;20037;-28
2022/02/25 01:43:35;;;;;;;1.13;0.50;;;;;;;26.30;27.18;96987.94;5013771;28;20033;-28
2022/02/25 01:46:00;;;;;;;0.70;0.47;;;;;;;26.30;26.98;96995.81;5011275;28;20427;-32
2022/02/25 01:48:26;;;;;;;0.70;0.40;;;;;;;26.29;27.08;96994.13;5013428;28;20686;-28
2022/02/25 01:50:51;;;;;;;1.38;0.32;;;;;;;26.29;27.05;96999.38;5013487;28;20107;-29
2022/02/25 01:53:19;;;;;;;0.38;0.30;;;;;;;26.29;27.10;96996.75;5010921;28;20029;-29
2022/02/25 01:55:46;;;;;;;0.52;0.40;;;;;;;26.29;26.98;97009.03;5006669;28;20449;-27
2022/02/25 01:58:11;;;;;;;2.78;0.40;;;;;;;26.28;26.97;97010.78;5006542;28;20034;-29
2022/02/25 02:00:37;;;;;;;0.40;0.40;;;;;;;26.24;27.10;97001.38;5002278;28;20091;-28
2022/02/25 02:03:03;;;;;;;1.67;0.60;;;;;;;26.28;27.14;97013.41;5001950;28;20029;-30
2022/02/25 02:05:28;;;;;;;0.50;0.50;;;;;;;26.28;27.01;97009.94;5002787;28;20491;-28
2022/02/25 02:07:54;;;;;;;0.30;0.25;;;;;;;26.27;27.01;97019.59;4987518;28;20025;-29
2022/02/25 02:10:19;;;;;;;0.85;0.43;;;;;;;26.27;26.95;97016.97;5006053;28;20025;-29
2022/02/25 02:12:45;;;;;;;0.45;0.30;;;;;;;26.27;26.91;97010.88;5004814;28;20404;-29
2022/02/25 02:15:10;;;;;;;1.30;0.40;;;;;;;26.27;27.00;97019.59;5006347;28;20025;-29
2022/02/25 02:17:36;;;;;;;1.05;0.30;;;;;;;26.26;27.09;97019.69;5009817;28;20044;-28
2022/02/25 02:20:02;;;;;;;1.33;0.40;;;;;;;26.25;27.05;97016.19;5009336;28;20123;-27
2022/02/25 02:22:27;;;;;;;0.35;0.20;;;;;;;26.26;27.07;97017.91;5009778;28;20068;-28
2022/02/25 02:24:53;;;;;;;0.47;0.32;;;;;;;26.25;27.03;97012.69;5007476;28;20039;-30
2022/02/25 02:27:18;;;;;;;0.98;0.50;;;;;;;26.26;27.05;97014.41;5008524;28;20041;-27
2022/02/25 02:29:43;;;;;;;1.23;0.30;;;;;;;26.26;26.99;97024.94;5008465;28;20021;-27
2022/02/25 02:32:09;;;;;;;1.17;0.30;;;;;;;26.26;27.01;97015.28;5007367;28;20462;-28
2022/02/25 02:34:35;;;;;;;0.50;0.38;;;;;;;26.25;27.01;97025.84;5007826;28;20698;-29
2022/02/25 02:37:00;;;;;;;0.45;0.30;;;;;;;26.24;26.94;97022.38;5010648;28;20025;-29
2022/02/25 02:39:25;;;;;;;2.75;0.50;;;;;;;26.23;27.01;97028.53;5007427;28;20029;-30
2022/02/25 02:41:51;;;;;;;0.93;0.40;;;;;;;26.24;27.10;97025.00;5006015;28;20512;-29
2022/02/25 02:44:16;;;;;;;0.65;0.40;;;;;;;26.23;27.01;97031.16;5006685;28;20040;-31
2022/02/25 02:46:42;;;;;;;1.00;0.50;;;;;;;26.23;27.12;97031.16;5007741;28;20119;-30
2022/02/25 02:49:07;;;;;;;0.55;0.32;;;;;;;26.22;26.82;97035.59;5006921;28;20209;-31
2022/02/25 02:51:32;;;;;;;1.15;0.40;;;;;;;26.22;27.01;97039.97;5004095;28;20037;-30
2022/02/25 02:53:58;;;;;;;0.43;0.30;;;;;;;26.21;26.95;97039.13;5004899;28;20025;-28
2022/02/25 02:56:23;;;;;;;0.50;0.40;;;;;;;26.21;26.99;97038.28;5007885;28;20087;-28
2022/02/25 02:58:55;;;;;;;0.50;0.30;;;;;;;26.21;27.17;97040.91;5007611;28;20102;-29
2022/02/25 03:01:22;;;;;;;1.05;0.35;;;;;;;26.21;27.11;97040.91;5006474;28;20121;-27
2022/02/25 03:03:48;;;;;;;0.50;0.30;;;;;;;26.21;27.12;97038.28;5009881;28;20081;-28
2022/02/25 03:06:13;;;;;;;0.85;0.43;;;;;;;26.21;27.04;97044.38;5010407;28;20043;-29
2022/02/25 03:08:38;;;;;;;0.60;0.30;;;;;;;26.20;27.14;97031.34;5008309;28;20033;-28
2022/02/25 03:11:04;;;;;;;0.45;0.30;;;;;;;26.21;27.07;97040.91;5007628;28;20116;-33
2022/02/25 03:13:29;;;;;;;0.20;0.20;;;;;;;26.20;27.15;97036.59;5006948;28;20795;-29
2022/02/25 03:15:55;;;;;;;0.35;0.28;;;;;;;26.19;27.00;97042.75;5007936;28;20033;-28
2022/02/25 03:18:20;;;;;;;0.65;0.30;;;;;;;26.19;27.08;97042.75;5008786;28;20443;-29
2022/02/25 03:20:45;;;;;;;0.85;0.50;;;;;;;26.19;26.95;97041.00;5009895;28;20084;-28
2022/02/25 03:23:11;;;;;;;1.75;0.32;;;;;;;26.19;27.03;97045.38;5005145;28;20061;-31
2022/02/25 03:25:36;;;;;;;0.50;0.40;;;;;;;26.18;27.03;97038.44;5003965;28;20029;-30
2022/02/25 03:28:02;;;;;;;0.30;0.30;;;;;;;26.18;27.10;97054.19;5002624;28;20033;-29
2022/02/25 03:30:27;;;;;;;0.43;0.30;;;;;;;26.18;27.06;97062.06;5008594;28;21035;-30
2022/02/25 03:32:54;;;;;;;0.70;0.30;;;;;;;26.18;27.02;97056.81;5014078;28;20044;-29
2022/02/25 03:35:19;;;;;;;0.82;0.45;;;;;;;26.18;27.14;97054.19;5009735;28;20552;-29
2022/02/25 03:37:45;;;;;;;0.68;0.30;;;;;;;26.17;27.04;97057.75;5009773;28;20025;-32
2022/02/25 03:40:11;;;;;;;0.73;0.40;;;;;;;26.17;27.14;97057.75;5007343;28;20689;-28
2022/02/25 03:42:37;;;;;;;0.43;0.30;;;;;;;26.16;27.13;97061.31;5008378;28;20570;-29
2022/02/25 03:45:04;;;;;;;0.20;0.20;;;;;;;26.16;27.00;97071.81;5006840;28;20025;-29
2022/02/25 03:47:32;;;;;;;0.70;0.30;;;;;;;26.15;26.98;97067.47;5008829;28;20044;-31
2022/02/25 03:49:58;;;;;;;0.30;0.25;;;;;;;26.15;26.97;97072.72;4989545;28;20071;-31
2022/02/25 03:52:24;;;;;;;0.43;0.20;;;;;;;26.14;27.07;97077.16;5008335;28;20037;-27
2022/02/25 03:54:49;;;;;;;2.33;0.50;;;;;;;26.15;26.98;97085.84;5008546;28;20112;-29
2022/02/25 03:57:15;;;;;;;0.47;0.28;;;;;;;26.15;26.98;97080.59;5006271;28;20037;-30
2022/02/25 03:59:40;;;;;;;0.60;0.30;;;;;;;26.14;27.03;97084.16;5008621;28;20021;-30
2022/02/25 04:02:06;;;;;;;0.50;0.30;;;;;;;26.14;27.00;97076.28;5008083;28;20029;-28
2022/02/25 04:04:31;;;;;;;0.50;0.30;;;;;;;26.13;27.15;97080.72;5005497;28;20068;-30
2022/02/25 04:06:56;;;;;;;0.60;0.20;;;;;;;26.12;27.19;97078.16;4989091;28;20613;-28
2022/02/25 04:09:22;;;;;;;0.45;0.20;;;;;;;26.13;27.07;97087.72;5003647;28;20040;-31
2022/02/25 04:11:51;;;;;;;0.32;0.32;;;;;;;26.12;27.11;97080.78;5003748;28;20040;-29
2022/02/25 04:14:20;;;;;;;0.60;0.40;;;;;;;26.13;27.09;97085.09;5002960;28;20156;-30
2022/02/25 04:16:46;;;;;;;0.93;0.38;;;;;;;26.12;27.11;97086.03;5004852;28;20029;-28
2022/02/25 04:19:11;;;;;;;2.22;0.20;;;;;;;26.12;27.00;97088.66;5005020;28;20037;-31
2022/02/25 04:21:37;;;;;;;0.32;0.30;;;;;;;26.11;27.10;97093.06;5008090;28;20026;-32
2022/02/25 04:24:03;;;;;;;1.40;0.20;;;;;;;26.10;27.04;97089.56;5005781;28;20074;-29
2022/02/25 04:26:28;;;;;;;0.20;0.20;;;;;;;26.10;27.12;97089.56;5004936;28;20038;-29
2022/02/25 04:28:53;;;;;;;0.17;0.17;;;;;;;26.09;27.04;97097.53;5005635;28;20307;-30
2022/02/25 04:31:19;;;;;;;0.60;0.30;;;;;;;26.06;27.03;97088.03;5005061;28;20404;-30
2022/02/25 04:33:44;;;;;;;0.28;0.28;;;;;;;26.09;27.00;97093.13;5006440;28;20179;-29
2022/02/25 04:36:10;;;;;;;0.45;0.22;;;;;;;26.09;27.02;97108.88;5006404;28;20029;-29
2022/02/25 04:38:35;;;;;;;0.55;0.22;;;;;;;26.09;27.08;97103.63;4985331;28;20037;-28
2022/02/25 04:41:01;;;;;;;0.30;0.30;;;;;;;26.08;27.14;97104.56;5005930;28;20071;-30
2022/02/25 04:43:30;;;;;;;0.73;0.30;;;;;;;26.08;26.99;97103.69;5005694;28;20049;-30
2022/02/25 04:45:56;;;;;;;0.60;0.40;;;;;;;26.08;27.13;97101.94;5005703;28;20098;-32
2022/02/25 04:48:22;;;;;;;0.65;0.40;;;;;;;26.07;27.02;97104.63;4989159;28;20022;-28
2022/02/25 04:50:48;;;;;;;0.63;0.30;;;;;;;26.07;27.12;97110.75;5007555;28;20090;-28
2022/02/25 04:53:13;;;;;;;2.03;0.22;;;;;;;26.06;27.11;97109.06;5005322;28;20037;-28
2022/02/25 04:55:39;;;;;;;0.77;0.30;;;;;;;26.06;27.02;97103.81;5007292;28;20033;-29
2022/02/25 04:58:04;;;;;;;0.38;0.20;;;;;;;26.06;26.95;97108.19;5007437;28;21671;-29
2022/02/25 05:00:29;;;;;;;0.95;0.40;;;;;;;26.06;26.91;97109.06;5007547;28;20135;-33
2022/02/25 05:02:55;;;;;;;0.43;0.32;;;;;;;26.06;27.07;97103.81;5006780;28;20566;-30
2022/02/25 05:05:20;;;;;;;0.63;0.40;;;;;;;26.04;26.98;97097.75;5010636;28;20025;-32
2022/02/25 05:07:46;;;;;;;0.77;0.30;;;;;;;26.05;27.04;97111.75;5010427;28;20156;-29
2022/02/25 05:10:12;;;;;;;0.88;0.25;;;;;;;26.05;27.03;97107.31;5006282;28;20049;-30
2022/02/25 05:12:37;;;;;;;0.65;0.50;;;;;;;26.04;27.16;97113.50;5010912;28;20033;-31
2022/02/25 05:20:31;;;;;;;0.63;0.35;;;;;;;26.03;27.13;97124.94;5013607;28;20565;-29
2022/02/25 05:22:58;;;;;;;0.98;0.28;;;;;;;26.02;27.04;97123.25;5016954;28;20038;-31
2022/02/25 05:25:23;;;;;;;0.77;0.32;;;;;;;26.02;27.16;97125.88;5014251;28;20049;-29
2022/02/25 05:27:50;;;;;;;1.23;0.30;;;;;;;26.01;27.19;97129.41;5013960;28;20026;-29
2022/02/25 05:30:15;;;;;;;0.40;0.30;;;;;;;26.02;27.13;97141.63;5015139;28;20104;-28
2022/02/25 05:32:44;;;;;;;0.75;0.28;;;;;;;26.00;27.09;97135.59;5014579;28;20032;-28
2022/02/25 05:35:10;;;;;;;0.10;0.10;;;;;;;26.00;27.06;97140.00;5015706;28;20032;-29
2022/02/25 05:37:40;;;;;;;0.65;0.38;;;;;;;26.00;27.01;97143.47;5014355;28;20041;-31
2022/02/25 05:40:06;;;;;;;1.05;0.38;;;;;;;25.99;27.04;97144.41;5014755;28;20197;-31
2022/02/25 05:42:32;;;;;;;1.27;0.30;;;;;;;25.99;27.23;97154.91;5010624;28;20025;-34
2022/02/25 05:44:59;;;;;;;0.68;0.32;;;;;;;26.00;27.07;97156.59;5003975;28;20117;-30
2022/02/25 05:47:24;;;;;;;0.20;0.20;;;;;;;25.98;27.15;97158.47;5007578;28;20037;-28
2022/02/25 05:49:49;;;;;;;0.50;0.30;;;;;;;25.98;27.14;97165.47;5011526;28;20043;-31
2022/02/25 05:52:15;;;;;;;0.65;0.30;;;;;;;25.99;27.17;97170.66;5012182;28;20025;-30
2022/02/25 05:54:40;;;;;;;0.55;0.40;;;;;;;25.97;27.15;97172.50;5011093;28;20037;-30
2022/02/25 05:57:06;;;;;;;0.90;0.50;;;;;;;25.96;27.03;97176.91;5012940;28;21079;-29
2022/02/25 05:59:31;;;;;;;0.32;0.30;;;;;;;25.97;27.08;97183.00;5009572;28;20040;-29
2022/02/25 06:01:56;;;;;;;0.68;0.35;;;;;;;25.97;26.98;97183.00;5010306;28;20044;-29
2022/02/25 06:04:22;;;;;;;0.43;0.30;;;;;;;25.98;27.16;97189.13;5009680;28;20029;-30
2022/02/25 06:06:47;;;;;;;0.47;0.35;;;;;;;25.97;27.14;97185.63;5001079;28;20033;-29
2022/02/25 06:09:13;;;;;;;0.63;0.32;;;;;;;25.97;27.15;97193.50;5003370;28;20037;-29
2022/02/25 06:11:38;;;;;;;0.35;0.32;;;;;;;25.97;27.10;97190.88;4999495;28;20041;-31
2022/02/25 06:14:03;;;;;;;0.68;0.20;;;;;;;25.97;27.08;97193.50;4998948;28;22708;-30
2022/02/25 06:16:29;;;;;;;1.95;0.40;;;;;;;25.95;27.17;97195.38;5002653;28;20056;-32
2022/02/25 06:18:54;;;;;;;0.40;0.40;;;;;;;25.98;27.17;97204.88;5001966;28;20447;-30
2022/02/25 06:21:20;;;;;;;0.57;0.30;;;;;;;25.96;27.14;97207.56;5003883;28;20526;-30
2022/02/25 06:23:45;;;;;;;0.75;0.50;;;;;;;25.96;27.19;97215.44;5003412;28;20029;-31
2022/02/25 06:26:10;;;;;;;0.60;0.40;;;;;;;25.97;27.19;97214.50;5003777;28;20037;-30
2022/02/25 06:28:36;;;;;;;0.93;0.30;;;;;;;25.96;27.18;97223.31;5000119;28;20033;-30
2022/02/25 06:31:01;;;;;;;0.55;0.25;;;;;;;25.96;27.22;97228.56;5000727;28;20022;-31
2022/02/25 06:33:27;;;;;;;0.80;0.50;;;;;;;25.95;27.14;97225.13;5001762;28;20026;-32
2022/02/25 06:35:52;;;;;;;1.10;0.40;;;;;;;25.95;27.18;97222.50;5001260;28;20033;-30
2022/02/25 06:38:18;;;;;;;0.82;0.40;;;;;;;25.97;27.07;97214.50;5000919;28;20547;-31
2022/02/25 06:40:43;;;;;;;0.50;0.30;;;;;;;25.97;27.21;97230.28;5001317;28;20038;-30
2022/02/25 06:43:08;;;;;;;1.05;0.32;;;;;;;25.98;27.08;97225.88;5000185;28;20037;-29
2022/02/25 06:45:34;;;;;;;1.02;0.30;;;;;;;25.97;27.20;97227.63;4998557;28;20033;-28
2022/02/25 06:47:59;;;;;;;0.52;0.30;;;;;;;25.97;27.21;97232.91;5001510;28;20409;-30
2022/02/25 06:50:24;;;;;;;0.57;0.30;;;;;;;25.97;27.00;97230.28;4999545;28;20044;-29
2022/02/25 06:52:50;;;;;;;0.93;0.45;;;;;;;25.96;27.24;97229.44;5001426;28;20037;-32
2022/02/25 06:55:16;;;;;;;0.88;0.38;;;;;;;25.98;27.07;97236.38;5000258;28;20025;-29
2022/02/25 06:57:42;;;;;;;0.68;0.30;;;;;;;25.98;27.21;97237.25;5002217;28;20522;-28
2022/02/25 07:00:08;;;;;;;0.90;0.25;;;;;;;25.98;27.16;97237.25;5002545;28;20034;-28
2022/02/25 07:02:33;;;;;;;0.32;0.25;;;;;;;25.97;27.19;97243.41;5004207;28;20041;-31
2022/02/25 07:04:59;;;;;;;0.45;0.30;;;;;;;25.98;27.08;97250.38;5009046;28;20605;-30
2022/02/25 07:07:24;;;;;;;0.28;0.28;;;;;;;26.00;27.20;97245.88;5008467;28;20404;-30
2022/02/25 07:09:49;;;;;;;0.63;0.35;;;;;;;25.99;27.08;97252.06;5005202;28;20025;-30
2022/02/25 07:12:15;;;;;;;2.60;0.68;;;;;;;26.01;27.17;97254.63;5005819;28;20029;-29
2022/02/25 07:14:40;;;;;;;0.60;0.30;;;;;;;26.00;27.25;97250.31;5003713;28;20120;-29
2022/02/25 07:17:06;;;;;;;0.50;0.32;;;;;;;26.01;27.22;97263.34;5002679;28;20472;-30
2022/02/25 07:19:31;;;;;;;0.38;0.32;;;;;;;26.01;27.09;97262.50;5002300;28;20874;-32
2022/02/25 07:21:56;;;;;;;0.75;0.38;;;;;;;26.02;27.24;97265.06;5002606;28;20038;-29
2022/02/25 07:24:22;;;;;;;2.92;0.60;;;;;;;26.02;27.27;97266.84;5002982;28;20045;-29
2022/02/25 07:26:47;;;;;;;3.22;0.63;;;;;;;26.03;27.25;97266.75;5003144;28;20593;-30
2022/02/25 07:29:13;;;;;;;5.80;0.93;;;;;;;26.03;27.18;97271.16;5000650;28;20042;-31
2022/02/25 07:31:39;;;;;;;7.25;1.52;;;;;;;26.04;27.23;97273.72;5011413;28;20041;-29
2022/02/25 07:34:04;;;;;;;4.43;1.70;;;;;;;26.04;27.06;97268.47;5002676;28;20060;-28
2022/02/25 07:36:30;;;;;;;10.32;1.75;;;;;;;26.05;27.17;97269.31;5003624;28;20114;-29
2022/02/25 07:38:55;;;;;;;7.95;2.10;;;;;;;26.04;27.16;97268.47;5003516;28;20029;-30
2022/02/25 07:41:21;;;;;;;6.53;1.95;;;;;;;26.03;27.11;97277.28;5004661;28;20033;-32
2022/02/25 07:43:46;;;;;;;9.57;2.25;;;;;;;26.04;27.27;97276.34;4998477;28;20029;-30
2022/02/25 07:46:12;;;;;;;6.38;1.80;;;;;;;26.05;27.27;97285.09;5002577;28;20044;-31
2022/02/25 07:48:37;;;;;;;3.45;1.90;;;;;;;26.07;27.34;97286.72;5002452;28;20033;-30
2022/02/25 07:51:02;;;;;;;6.05;1.88;;;;;;;26.08;27.30;97288.41;5000789;28;20037;-31
2022/02/25 07:53:30;;;;;;;4.40;1.42;;;;;;;26.11;27.28;97295.28;5006436;28;20072;-30
2022/02/25 07:55:56;;;;;;;6.47;1.50;;;;;;;26.13;27.46;97300.47;5008204;28;20047;-29
2022/02/25 07:58:21;;;;;;;6.07;1.25;;;;;;;26.14;27.32;97304.81;5011520;28;20033;-31
2022/02/25 08:00:47;;;;;;;4.32;1.55;;;;;;;26.16;27.44;97300.34;5010824;28;20348;-31
2022/02/25 08:03:12;;;;;;;5.07;1.60;;;;;;;26.18;27.45;97301.09;5010836;28;20028;-34
2022/02/25 08:05:37;;;;;;;3.78;1.75;;;;;;;26.19;27.57;97308.06;5009624;28;20640;-30
2022/02/25 08:08:04;;;;;;;5.93;1.85;;;;;;;26.21;27.43;97300.97;5010750;28;20040;-30
2022/02/25 08:10:32;;;;;;;6.55;1.60;;;;;;;26.24;27.52;97306.09;5006846;28;20407;-29
2022/02/25 08:12:58;;;;;;;3.80;1.77;;;;;;;26.26;27.40;97308.66;5008066;28;20030;-31
2022/02/25 08:15:23;;;;;;;5.38;1.67;;;;;;;26.28;27.36;97317.34;5010000;28;20488;-29
2022/02/25 08:17:48;;;;;;;5.38;1.85;;;;;;;26.29;27.40;97317.25;5007700;28;20029;-32
2022/02/25 08:20:14;;;;;;;8.60;2.38;;;;;;;26.31;27.41;97318.03;5011249;28;20025;-30
2022/02/25 08:22:39;;;;;;;3.45;1.65;;;;;;;26.34;27.40;97320.53;5006412;28;20029;-30
2022/02/25 08:25:06;;;;;;;5.47;1.65;;;;;;;26.37;27.31;97316.03;5007711;28;20462;-31
2022/02/25 08:27:31;;;;;;;7.28;1.98;;;;;;;26.39;27.41;97314.19;5005926;28;20037;-31
2022/02/25 08:29:57;;;;;;;3.97;1.65;;;;;;;26.40;27.23;97311.50;5008868;28;20029;-31
2022/02/25 08:32:22;;;;;;;3.50;1.90;;;;;;;26.42;26.94;97314.03;5007815;28;20022;-30
2022/02/25 08:34:48;;;;;;;4.85;1.95;;;;;;;26.43;26.94;97316.59;5006920;28;20032;-32
2022/02/25 08:37:13;;;;;;;3.85;1.88;;;;;;;26.43;27.04;97310.50;5011747;28;20063;-30
2022/02/25 08:39:39;;;;;;;3.47;1.52;;;;;;;26.45;27.12;97313.91;5008071;28;20036;-33
2022/02/25 08:42:04;;;;;;;5.75;1.95;;;;;;;26.46;27.16;97311.19;5009657;28;20037;-30
2022/02/25 08:44:30;;;;;;;3.40;1.42;;;;;;;26.46;27.10;97305.94;5013721;28;20373;-30
2022/02/25 08:46:55;;;;;;;4.18;1.63;;;;;;;26.48;27.14;97308.50;5010794;28;20095;-30
2022/02/25 08:49:21;;;;;;;5.10;1.90;;;;;;;26.49;27.22;97312.81;5008076;28;20026;-29
2022/02/25 08:51:47;;;;;;;4.82;2.00;;;;;;;26.51;27.15;97307.50;5009846;28;20420;-29
2022/02/25 08:54:16;;;;;;;5.00;1.92;;;;;;;26.53;27.30;97309.13;5006405;28;20041;-31
2022/02/25 08:56:41;;;;;;;5.43;1.80;;;;;;;26.53;27.46;97301.25;5006195;28;20025;-30
2022/02/25 08:59:06;;;;;;;4.70;1.70;;;;;;;26.55;27.19;97301.19;5007236;28;20040;-29
2022/02/25 09:01:32;;;;;;;3.42;1.77;;;;;;;26.54;27.27;97302.94;5006704;28;20033;-31
2022/02/25 09:04:01;;;;;;;4.85;1.50;;;;;;;26.57;27.20;97308.06;5004620;28;20306;-30
2022/02/25 09:06:28;;;;;;;4.00;1.70;;;;;;;26.58;27.34;97309.75;5002809;28;21939;-33
2022/02/25 09:08:53;;;;;;;8.90;2.17;;;;;;;26.59;26.68;97303.56;5005160;28;20033;-30
2022/02/25 09:11:19;;;;;;;9.60;2.30;;;;;;;26.49;23.14;97310.19;5013143;28;20029;-30
2022/02/25 09:13:45;;;;;;;11.13;3.60;;;;;;;26.26;20.86;97306.88;5014449;28;20026;-30
2022/02/25 09:16:11;;;;;;;9.80;2.67;;;;;;;25.98;19.35;97305.53;5014142;28;20075;-32
2022/02/25 09:18:37;;;;;;;11.82;2.60;;;;;;;25.70;19.52;97309.38;5013793;28;21071;-32
2022/02/25 09:21:02;;;;;;;6.40;2.42;;;;;;;25.50;20.24;97305.84;5011703;28;20094;-29
2022/02/25 09:23:27;;;;;;;13.43;2.78;;;;;;;25.38;20.79;97311.63;5012806;28;20504;-30
2022/02/25 09:25:53;;;;;;;8.18;2.15;;;;;;;25.29;21.48;97308.47;5014160;28;20032;-31
2022/02/25 09:28:18;;;;;;;7.60;2.35;;;;;;;25.27;21.85;97310.31;5010735;28;20408;-31
2022/02/25 09:30:44;;;;;;;6.90;2.30;;;;;;;25.28;21.98;97321.66;5014938;28;20045;-31
2022/02/25 09:33:09;;;;;;;6.05;2.20;;;;;;;25.30;22.34;97307.56;5011913;28;20057;-29
2022/02/25 09:35:35;;;;;;;7.18;2.42;;;;;;;25.35;22.68;97311.78;5013567;28;20045;-31
2022/02/25 09:38:00;;;;;;;7.22;1.95;;;;;;;25.39;22.83;97313.31;5012702;28;20109;-34
2022/02/25 09:40:26;;;;;;;4.53;2.00;;;;;;;25.44;22.83;97317.44;5010539;28;20035;-32
2022/02/25 09:42:51;;;;;;;5.88;1.90;;;;;;;25.50;23.14;97305.84;5008032;28;20025;-32
2022/02/25 09:45:17;;;;;;;6.03;1.95;;;;;;;25.53;23.28;97300.47;5011078;28;20029;-33
2022/02/25 09:47:42;;;;;;;8.70;2.30;;;;;;;25.59;23.53;97303.75;5007443;28;20033;-31
2022/02/25 09:50:10;;;;;;;9.15;2.97;;;;;;;25.64;23.52;97307.03;4987460;28;20114;-29
2022/02/25 09:52:36;;;;;;;12.55;3.88;;;;;;;25.70;23.65;97312.00;4984336;28;20045;-32
2022/02/25 09:55:08;;;;;;;14.98;4.22;;;;;;;25.74;23.73;97310.94;5005402;28;20021;-32
2022/02/25 09:57:34;;;;;;;17.52;3.97;;;;;;;25.79;23.77;97316.00;5005358;28;20982;-32
2022/02/25 09:59:59;;;;;;;18.33;4.25;;;;;;;25.84;23.95;97308.75;5006591;28;20033;-30
2022/02/25 10:02:45;;;;;;;18.98;4.63;;;;;;;25.89;23.97;97312.03;5006390;28;20029;-31
2022/02/25 10:05:15;;;;;;;10.80;3.65;;;;;;;25.93;24.12;97316.22;5010551;28;20075;-31
2022/02/25 10:07:40;;;;;;;8.98;2.88;;;;;;;25.98;24.04;97317.78;5008341;28;20081;-30
2022/02/25 10:10:06;;;;;;;12.45;3.58;;;;;;;26.00;24.26;97322.03;5003862;28;20677;-30
2022/02/25 10:12:32;;;;;;;19.13;3.30;;;;;;;26.02;24.37;97322.84;5005390;28;20396;-29
2022/02/25 10:14:58;;;;;;;14.20;3.83;;;;;;;26.06;24.30;97328.81;5003005;28;20033;-31
2022/02/25 10:17:25;;;;;;;12.10;3.72;;;;;;;26.09;24.46;97319.00;5002591;28;20033;-32
2022/02/25 10:19:54;;;;;;;12.32;3.33;;;;;;;26.12;24.67;97330.31;5005889;28;20519;-31
2022/02/25 10:22:27;;;;;;;13.48;4.00;;;;;;;26.16;24.62;97334.50;5008654;28;20034;-32
2022/02/25 10:24:52;;;;;;;17.00;3.33;;;;;;;26.19;24.67;97324.69;5007999;28;20416;-32
2022/02/25 10:27:19;;;;;;;13.13;3.30;;;;;;;26.22;24.61;97323.69;5009996;28;20036;-30
2022/02/25 10:30:17;;;;;;;11.80;3.50;;;;;;;26.24;24.93;97327.13;5009788;28;20036;-29
2022/02/25 10:32:50;;;;;;;9.82;3.25;;;;;;;26.26;24.81;97319.16;4947357;28;20033;-29
2022/02/25 10:35:27;;;;;;;11.27;3.30;;;;;;;26.29;24.79;97317.25;5012094;28;20717;-30
2022/02/25 10:37:58;;;;;;;7.38;3.13;;;;;;;26.31;24.98;97323.28;5015117;28;20542;-30
2022/02/25 10:40:24;;;;;;;12.40;3.42;;;;;;;26.35;24.94;97323.97;5011375;28;20504;-31
2022/02/25 10:42:50;;;;;;;6.30;2.60;;;;;;;26.37;25.04;97323.91;5010384;28;20025;-29
2022/02/25 10:45:32;;;;;;;9.10;2.95;;;;;;;26.39;25.08;97319.47;5012147;28;20672;-29
2022/02/25 10:48:00;;;;;;;;;;;;;;;26.42;25.11;97332.44;5014741;28;20034;-31
2022/02/25 10:50:27;;;;;;;8.00;3.05;;;;;;;26.44;25.14;97317.47;5013873;28;20733;-29
2022/02/25 10:52:52;;;;;;;9.48;3.30;;;;;;;26.43;25.27;97321.00;5017891;28;20029;-30
2022/02/25 10:55:22;;;;;;;8.27;2.78;;;;;;;26.46;25.36;97323.47;4993974;28;20399;-32
2022/02/25 10:57:47;;;;;;;10.48;3.03;;;;;;;26.47;25.36;97322.56;5013974;28;20025;-29
2022/02/25 11:00:14;;;;;;;11.38;3.03;;;;;;;26.49;25.40;97328.59;5015152;28;20057;-30
2022/02/25 11:02:45;;;;;;;7.53;2.85;;;;;;;26.51;25.53;97326.75;5012475;28;20040;-31
2022/02/25 11:05:23;;;;;;;10.80;2.90;;;;;;;26.52;25.40;97325.84;5013491;28;20200;-32
2022/02/25 11:07:52;;;;;;;8.38;2.67;;;;;;;26.54;25.41;97318.72;4994543;28;20030;-31
2022/02/25 11:10:19;;;;;;;9.30;2.78;;;;;;;26.55;25.44;97317.78;5008852;28;20503;-31
2022/02/25 11:12:45;;;;;;;7.75;2.75;;;;;;;26.57;25.52;97320.34;5012842;28;20032;-31
2022/02/25 11:15:15;;;;;;;5.88;2.42;;;;;;;26.59;25.77;97335.09;5014436;28;20021;-33
2022/02/25 11:17:42;;;;;;;8.73;2.78;;;;;;;26.60;25.71;97328.94;5016951;28;20083;-33
2022/02/25 11:20:08;;;;;;;6.95;2.35;;;;;;;26.61;25.63;97320.13;5015608;28;20029;-30
2022/02/25 11:22:37;;;;;;;7.25;2.72;;;;;;;26.64;25.75;97323.53;5013288;28;20075;-33
2022/02/25 11:25:03;;;;;;;7.22;2.65;;;;;;;26.64;25.83;97315.63;5011686;28;20037;-34
2022/02/25 11:27:28;;;;;;;9.25;2.83;;;;;;;26.66;25.72;97326.94;5011332;28;20076;-29
2022/02/25 11:30:04;;;;;;;7.45;2.60;;;;;;;26.67;25.76;97318.13;5011731;28;20034;-31
2022/02/25 11:32:37;;;;;;;7.95;2.90;;;;;;;26.68;25.88;97320.69;4995844;28;20256;-32
2022/02/25 11:35:17;;;;;;;6.07;2.28;;;;;;;26.69;25.90;97311.03;4997666;28;20028;-32